createdAt,value
2022-10-17T00:01:32.623Z,5.75
2022-10-17T00:03:59.229Z,6.22
2022-10-17T00:06:25.756Z,5.68
2022-10-17T00:08:52.461Z,6.05
2022-10-17T00:11:22.067Z,5.93
2022-10-17T00:13:50.908Z,6.50
2022-10-17T00:16:30.001Z,6.35
2022-10-17T00:18:57.396Z,6.28
2022-10-17T00:21:24.978Z,5.72
2022-10-17T00:23:52.462Z,6.03
2022-10-17T00:26:19.621Z,5.85
2022-10-17T00:28:47.897Z,6.72
2022-10-17T00:31:16.518Z,5.90
2022-10-17T00:33:44.139Z,5.63
2022-10-17T00:36:18.118Z,5.78
2022-10-17T00:38:47.790Z,6.40
2022-10-17T00:41:17.041Z,5.45
2022-10-17T00:43:52.737Z,6.00
2022-10-17T00:46:19.873Z,5.32
2022-10-17T00:48:48.944Z,5.75
2022-10-17T00:51:16.389Z,6.30
2022-10-17T00:53:43.453Z,6.63
2022-10-17T00:56:10.842Z,7.22
2022-10-17T00:58:37.392Z,7.78
2022-10-17T01:01:04.165Z,8.38
2022-10-17T01:03:30.926Z,7.93
2022-10-17T01:05:57.573Z,7.22
2022-10-17T01:08:24.453Z,7.95
2022-10-17T01:11:03.299Z,7.95
2022-10-17T01:13:49.849Z,8.25
2022-10-17T01:16:27.829Z,8.13
2022-10-17T01:19:06.945Z,8.57
2022-10-17T01:21:52.046Z,8.35
2022-10-17T01:27:37.823Z,9.07
2022-10-17T01:30:16.748Z,7.43
2022-10-17T01:32:53.015Z,8.52
2022-10-17T01:35:26.051Z,8.23
2022-10-17T01:38:16.294Z,8.48
2022-10-17T01:40:50.990Z,8.23
2022-10-17T01:46:08.152Z,6.90
2022-10-17T01:48:38.007Z,6.82
2022-10-17T01:51:13.214Z,6.55
2022-10-17T01:53:47.263Z,6.60
2022-10-17T01:56:16.836Z,6.13
2022-10-17T01:58:58.965Z,6.80
2022-10-17T02:01:29.778Z,6.47
2022-10-17T02:03:58.396Z,6.07
2022-10-17T02:06:25.339Z,6.45
2022-10-17T02:08:51.878Z,6.45
2022-10-17T02:11:22.301Z,5.35
2022-10-17T02:17:08.076Z,5.93
2022-10-17T02:19:54.400Z,5.95
2022-10-17T02:22:43.362Z,5.65
2022-10-17T02:25:18.235Z,5.07
2022-10-17T02:27:50.646Z,5.07
2022-10-17T02:30:40.567Z,5.45
2022-10-17T02:33:13.825Z,5.68
2022-10-17T02:35:44.683Z,5.60
2022-10-17T02:38:13.770Z,6.03
2022-10-17T02:40:42.569Z,5.20
2022-10-17T02:43:09.229Z,5.10
2022-10-17T02:45:37.853Z,5.15
2022-10-17T02:48:19.448Z,5.63
2022-10-17T02:51:16.007Z,5.90
2022-10-17T02:53:54.924Z,6.15
2022-10-17T02:56:22.392Z,5.78
2022-10-17T02:58:54.877Z,6.45
2022-10-17T03:01:22.036Z,5.68
2022-10-17T03:03:48.690Z,6.78
2022-10-17T03:06:15.809Z,5.65
2022-10-17T03:08:42.403Z,6.03
2022-10-17T03:11:08.953Z,5.63
2022-10-17T03:13:38.968Z,5.22
2022-10-17T03:16:06.612Z,5.88
2022-10-17T03:18:33.183Z,5.15
2022-10-17T03:20:59.751Z,5.80
2022-10-17T03:23:26.277Z,6.07
2022-10-17T03:25:52.798Z,6.03
2022-10-17T03:28:19.360Z,6.30
2022-10-17T03:30:45.871Z,6.10
2022-10-17T03:33:12.411Z,5.22
2022-10-17T03:35:40.362Z,5.35
2022-10-17T03:38:07.123Z,6.38
2022-10-17T03:40:33.704Z,5.88
2022-10-17T03:43:00.406Z,5.30
2022-10-17T03:45:27.113Z,5.97
2022-10-17T03:47:53.718Z,6.32
2022-10-17T03:50:20.385Z,6.30
2022-10-17T03:52:48.416Z,6.22
2022-10-17T03:55:15.602Z,7.10
2022-10-17T03:57:44.726Z,6.90
2022-10-17T04:00:12.707Z,7.00
2022-10-17T04:02:39.564Z,7.07
2022-10-17T04:05:06.807Z,7.13
2022-10-17T04:07:33.350Z,7.40
2022-10-17T04:10:00.110Z,7.28
2022-10-17T04:12:26.974Z,6.55
2022-10-17T04:14:53.705Z,7.05
2022-10-17T04:17:20.266Z,7.13
2022-10-17T04:19:46.826Z,7.38
2022-10-17T04:22:13.362Z,7.05
2022-10-17T04:24:39.883Z,7.25
2022-10-17T04:27:06.487Z,7.07
2022-10-17T04:29:33.002Z,6.30
2022-10-17T04:31:59.557Z,8.07
2022-10-17T04:34:26.085Z,6.88
2022-10-17T04:36:52.754Z,7.03
2022-10-17T04:39:19.299Z,6.72
2022-10-17T04:41:45.838Z,6.82
2022-10-17T04:44:12.593Z,7.13
2022-10-17T04:46:39.366Z,6.30
2022-10-17T04:49:06.017Z,7.28
2022-10-17T04:51:34.798Z,7.65
2022-10-17T04:54:01.423Z,7.38
2022-10-17T04:56:27.988Z,7.15
2022-10-17T04:58:54.507Z,7.22
2022-10-17T05:01:22.661Z,7.28
2022-10-17T05:03:49.514Z,7.97
2022-10-17T05:06:22.931Z,7.47
2022-10-17T05:08:49.529Z,7.20
2022-10-17T05:11:20.387Z,6.75
2022-10-17T05:13:54.840Z,6.85
2022-10-17T05:16:22.155Z,7.35
2022-10-17T05:18:53.459Z,7.68
2022-10-17T05:21:20.924Z,6.82
2022-10-17T05:23:48.078Z,6.93
2022-10-17T05:26:14.944Z,7.40
2022-10-17T05:28:41.610Z,6.75
2022-10-17T05:31:10.358Z,7.03
2022-10-17T05:33:37.813Z,6.68
2022-10-17T05:36:05.127Z,7.50
2022-10-17T05:38:31.855Z,6.85
2022-10-17T05:41:02.102Z,7.20
2022-10-17T05:43:29.362Z,7.30
2022-10-17T05:45:56.445Z,7.13
2022-10-17T05:48:24.195Z,6.10
2022-10-17T05:50:58.880Z,6.60
2022-10-17T05:53:25.527Z,6.28
2022-10-17T05:55:59.699Z,6.00
2022-10-17T06:01:13.575Z,7.18
2022-10-17T06:03:40.172Z,6.97
2022-10-17T06:06:08.928Z,8.20
2022-10-17T06:08:35.481Z,7.28
2022-10-17T06:11:06.016Z,6.47
2022-10-17T06:13:36.055Z,6.95
2022-10-17T06:16:02.606Z,6.82
2022-10-17T06:18:29.249Z,7.43
2022-10-17T06:21:03.292Z,6.68
2022-10-17T06:23:29.837Z,6.63
2022-10-17T06:26:03.460Z,7.25
2022-10-17T06:28:30.604Z,6.90
2022-10-17T06:30:57.550Z,5.95
2022-10-17T06:33:24.280Z,5.75
2022-10-17T06:35:53.000Z,7.15
2022-10-17T06:38:20.195Z,6.75
2022-10-17T06:40:46.846Z,6.70
2022-10-17T06:43:14.376Z,6.28
2022-10-17T06:45:41.626Z,5.70
2022-10-17T06:48:08.602Z,6.40
2022-10-17T06:50:35.465Z,6.90
2022-10-17T06:53:02.101Z,6.82
2022-10-17T06:55:28.687Z,6.13
2022-10-17T06:57:56.595Z,6.57
2022-10-17T07:00:23.572Z,5.95
2022-10-17T07:02:50.163Z,7.75
2022-10-17T07:05:17.371Z,6.15
2022-10-17T07:07:45.517Z,7.03
2022-10-17T07:10:13.976Z,5.00
2022-10-17T07:12:40.549Z,4.78
2022-10-17T07:15:07.571Z,5.20
2022-10-17T07:17:34.121Z,5.30
2022-10-17T07:20:00.788Z,5.43
2022-10-17T07:22:27.380Z,4.97
2022-10-17T07:24:53.966Z,4.68
2022-10-17T07:27:20.788Z,4.85
2022-10-17T07:29:47.313Z,4.75
2022-10-17T07:32:13.878Z,4.80
2022-10-17T07:34:40.396Z,5.38
2022-10-17T07:37:07.465Z,4.78
2022-10-17T07:39:35.682Z,4.68
2022-10-17T07:42:02.364Z,4.65
2022-10-17T07:44:29.189Z,4.90
2022-10-17T07:46:55.805Z,5.30
2022-10-17T07:49:22.355Z,4.50
2022-10-17T07:51:49.595Z,5.22
2022-10-17T07:54:16.292Z,4.90
2022-10-17T07:56:42.924Z,4.78
2022-10-17T07:59:10.029Z,4.93
2022-10-17T08:01:37.151Z,4.15
2022-10-17T08:04:03.722Z,4.70
2022-10-17T08:06:30.367Z,4.85
2022-10-17T08:08:58.019Z,4.65
2022-10-17T08:11:25.422Z,4.28
2022-10-17T08:13:52.087Z,4.53
2022-10-17T08:16:18.683Z,4.97
2022-10-17T08:18:45.342Z,4.55
2022-10-17T08:21:13.514Z,4.88
2022-10-17T08:23:40.133Z,4.20
2022-10-17T08:26:10.731Z,3.95
2022-10-17T08:28:39.285Z,4.72
2022-10-17T08:31:08.307Z,5.20
2022-10-17T08:33:35.152Z,4.55
2022-10-17T08:36:02.874Z,4.93
2022-10-17T08:38:33.338Z,5.03
2022-10-17T08:41:04.551Z,4.65
2022-10-17T08:43:55.140Z,4.28
2022-10-17T08:46:21.876Z,5.07
2022-10-17T08:48:50.491Z,5.10
2022-10-17T08:51:42.771Z,5.43
2022-10-17T08:54:20.705Z,4.80
2022-10-17T08:56:50.318Z,4.55
2022-10-17T08:59:28.253Z,4.70
2022-10-17T09:02:29.494Z,4.80
2022-10-17T09:05:26.604Z,5.00
2022-10-17T09:08:24.911Z,8.85
2022-10-17T09:11:21.396Z,4.85
2022-10-17T09:13:51.020Z,4.80
2022-10-17T09:16:37.545Z,4.80
2022-10-17T09:19:35.482Z,4.90
2022-10-17T09:22:08.918Z,4.57
2022-10-17T09:24:43.925Z,4.75
2022-10-17T09:27:35.532Z,5.15
2022-10-17T09:30:33.465Z,5.00
2022-10-17T09:33:23.345Z,5.40
2022-10-17T09:36:02.706Z,5.47
2022-10-17T09:38:37.986Z,5.05
2022-10-17T09:41:19.968Z,5.25
2022-10-17T09:43:56.951Z,5.20
2022-10-17T09:46:37.831Z,6.38
2022-10-17T09:49:17.426Z,4.70
2022-10-17T09:51:44.474Z,5.00
2022-10-17T09:54:39.857Z,5.15
2022-10-17T09:57:09.296Z,4.55
2022-10-17T09:59:42.512Z,4.38
2022-10-17T10:02:13.441Z,4.82
2022-10-17T10:05:06.286Z,4.32
2022-10-17T10:07:36.729Z,4.53
2022-10-17T10:10:06.629Z,4.82
2022-10-17T10:12:38.117Z,5.00
2022-10-17T10:15:33.289Z,5.10
2022-10-17T10:18:00.041Z,4.78
2022-10-17T10:20:35.180Z,4.53
2022-10-17T10:23:12.134Z,5.40
2022-10-17T10:25:48.856Z,4.55
2022-10-17T10:28:17.475Z,4.78
2022-10-17T10:30:49.908Z,4.72
2022-10-17T10:33:20.550Z,4.50
2022-10-17T10:36:01.978Z,4.45
2022-10-17T10:38:30.311Z,4.45
2022-10-17T10:41:09.474Z,4.85
2022-10-17T10:43:51.701Z,5.00
2022-10-17T10:46:21.799Z,4.32
2022-10-17T10:48:53.688Z,4.78
2022-10-17T10:51:27.770Z,4.47
2022-10-17T10:54:06.816Z,4.13
2022-10-17T10:56:48.712Z,4.35
2022-10-17T10:59:30.381Z,4.85
2022-10-17T11:02:19.050Z,4.22
2022-10-17T11:04:58.808Z,4.35
2022-10-17T11:07:35.110Z,4.35
2022-10-17T11:10:22.263Z,4.65
2022-10-17T11:12:53.761Z,4.15
2022-10-17T11:15:40.480Z,4.32
2022-10-17T11:18:13.198Z,3.90
2022-10-17T11:20:58.104Z,4.25
2022-10-17T11:26:16.280Z,4.35
2022-10-17T11:28:42.884Z,4.22
2022-10-17T11:31:13.549Z,3.92
2022-10-17T11:34:19.500Z,4.10
2022-10-17T11:36:50.653Z,4.18
2022-10-17T11:39:27.776Z,4.07
2022-10-17T11:42:07.121Z,3.83
2022-10-17T11:44:39.296Z,4.28
2022-10-17T11:47:14.696Z,3.75
2022-10-17T11:49:49.997Z,3.75
2022-10-17T11:52:55.372Z,3.60
2022-10-17T11:55:28.815Z,4.53
2022-10-17T12:01:16.134Z,4.70
2022-10-17T12:04:01.513Z,3.60
2022-10-17T12:07:01.077Z,3.90
2022-10-17T12:09:46.424Z,3.88
2022-10-17T12:12:28.632Z,4.28
2022-10-17T12:15:23.401Z,4.20
2022-10-17T12:17:58.400Z,4.10
2022-10-17T12:20:24.947Z,4.30
2022-10-17T12:22:52.618Z,3.83
2022-10-17T12:25:26.527Z,4.43
2022-10-17T12:28:13.250Z,3.70
2022-10-17T12:30:51.656Z,3.65
2022-10-17T12:33:30.272Z,3.85
2022-10-17T12:36:34.637Z,3.33
2022-10-17T12:39:01.110Z,3.70
2022-10-17T12:41:40.033Z,3.20
2022-10-17T12:44:12.874Z,3.72
2022-10-17T12:46:51.521Z,3.80
2022-10-17T12:49:39.866Z,3.47
2022-10-17T12:52:44.843Z,3.80
2022-10-17T12:55:15.673Z,3.70
2022-10-17T12:57:42.175Z,3.30
2022-10-17T13:00:16.901Z,3.38
2022-10-17T13:02:44.523Z,3.40
2022-10-17T13:05:26.712Z,3.53
2022-10-17T13:07:55.504Z,3.60
2022-10-17T13:10:28.619Z,3.83
2022-10-17T13:13:04.916Z,3.53
2022-10-17T13:15:31.981Z,3.55
2022-10-17T13:18:00.503Z,3.72
2022-10-17T13:20:31.575Z,3.50
2022-10-17T13:22:59.552Z,3.70
2022-10-17T13:25:27.968Z,3.50
2022-10-17T13:28:07.680Z,4.88
2022-10-17T13:30:37.477Z,5.55
2022-10-17T13:33:18.631Z,3.53
2022-10-17T13:35:59.829Z,3.88
2022-10-17T13:38:30.278Z,4.18
2022-10-17T13:41:05.839Z,3.70
2022-10-17T13:43:43.931Z,3.97
2022-10-17T13:46:37.255Z,3.70
2022-10-17T13:49:20.686Z,3.67
2022-10-17T13:51:54.090Z,3.92
2022-10-17T13:54:32.901Z,3.50
2022-10-17T13:57:00.930Z,3.60
2022-10-17T13:59:40.635Z,3.60
2022-10-17T14:02:15.335Z,4.13
2022-10-17T14:05:11.684Z,4.40
2022-10-17T14:08:05.519Z,3.80
2022-10-17T14:12:53.468Z,5.10
2022-10-17T14:15:24.384Z,4.07
2022-10-17T14:18:05.410Z,3.75
2022-10-17T14:21:19.443Z,3.70
2022-10-17T14:23:42.224Z,4.03
2022-10-17T14:26:16.401Z,3.72
2022-10-17T14:28:46.343Z,4.15
2022-10-17T14:31:25.676Z,3.90
2022-10-17T14:33:54.284Z,4.43
2022-10-17T14:36:30.949Z,3.95
2022-10-17T14:38:58.248Z,4.05
2022-10-17T14:44:32.386Z,4.00
2022-10-17T14:47:30.704Z,3.80
2022-10-17T14:50:08.613Z,3.67
2022-10-17T14:52:35.923Z,3.63
2022-10-17T14:55:26.505Z,4.10
2022-10-17T14:57:53.201Z,3.90
2022-10-17T15:00:22.202Z,3.83
2022-10-17T15:02:49.975Z,4.50
2022-10-17T15:05:16.949Z,4.53
2022-10-17T15:07:43.890Z,3.88
2022-10-17T15:10:27.338Z,3.72
2022-10-17T15:12:57.532Z,4.15
2022-10-17T15:15:30.551Z,4.55
2022-10-17T15:17:57.502Z,4.28
2022-10-17T15:20:28.102Z,4.68
2022-10-17T15:22:55.049Z,4.50
2022-10-17T15:25:22.467Z,4.03
2022-10-17T15:27:49.068Z,4.03
2022-10-17T15:30:21.781Z,4.20
2022-10-17T15:32:49.751Z,4.65
2022-10-17T15:35:16.939Z,4.68
2022-10-17T15:37:44.200Z,4.30
2022-10-17T15:40:16.171Z,4.03
2022-10-17T15:42:42.964Z,4.15
2022-10-17T15:45:17.619Z,4.30
2022-10-17T15:47:49.840Z,4.32
2022-10-17T15:50:17.939Z,3.85
2022-10-17T15:52:47.058Z,3.65
2022-10-17T15:55:13.708Z,3.80
2022-10-17T15:57:43.484Z,3.90
2022-10-17T16:00:28.229Z,4.65
2022-10-17T16:02:54.789Z,5.20
2022-10-17T16:05:26.056Z,6.68
2022-10-17T16:07:57.486Z,5.20
2022-10-17T16:10:25.619Z,5.13
2022-10-17T16:12:52.680Z,5.03
2022-10-17T16:15:25.076Z,4.88
2022-10-17T16:17:55.691Z,4.45
2022-10-17T16:20:24.504Z,4.25
2022-10-17T16:22:51.484Z,4.50
2022-10-17T16:25:24.178Z,5.10
2022-10-17T16:27:53.777Z,4.43
2022-10-17T16:32:48.845Z,5.55
2022-10-17T16:35:22.690Z,4.60
2022-10-17T16:37:49.713Z,4.57
2022-10-17T16:40:17.050Z,4.20
2022-10-17T16:42:44.240Z,4.40
2022-10-17T16:45:20.005Z,4.80
2022-10-17T16:47:51.718Z,4.60
2022-10-17T16:50:18.571Z,4.80
2022-10-17T16:52:45.113Z,5.22
2022-10-17T16:55:11.840Z,4.90
2022-10-17T16:57:38.438Z,4.40
2022-10-17T17:00:07.273Z,4.78
2022-10-17T17:02:34.131Z,4.68
2022-10-17T17:05:00.969Z,4.65
2022-10-17T17:07:29.531Z,4.63
2022-10-17T17:09:56.512Z,4.10
2022-10-17T17:12:23.425Z,5.07
2022-10-17T17:14:50.109Z,4.55
2022-10-17T17:17:30.281Z,4.30
2022-10-17T17:20:03.628Z,4.50
2022-10-17T17:22:30.248Z,4.95
2022-10-17T17:24:56.752Z,5.22
2022-10-17T17:27:25.104Z,4.43
2022-10-17T17:29:51.620Z,4.55
2022-10-17T17:32:18.140Z,4.20
2022-10-17T17:34:45.629Z,4.57
2022-10-17T17:37:12.283Z,5.28
2022-10-17T17:39:38.827Z,4.43
2022-10-17T17:42:05.406Z,4.90
2022-10-17T17:44:31.996Z,4.97
2022-10-17T17:46:58.582Z,4.38
2022-10-17T17:49:25.091Z,4.63
2022-10-17T17:51:51.676Z,4.65
2022-10-17T17:54:19.372Z,5.00
2022-10-17T17:56:47.369Z,4.35
2022-10-17T17:59:14.017Z,4.63
2022-10-17T18:01:40.837Z,4.07
2022-10-17T18:04:09.026Z,4.97
2022-10-17T18:06:37.748Z,5.10
2022-10-17T18:09:07.383Z,4.80
2022-10-17T18:11:34.724Z,5.18
2022-10-17T18:14:04.792Z,5.03
2022-10-17T18:16:33.129Z,4.53
2022-10-17T18:19:05.923Z,4.53
2022-10-17T18:21:33.819Z,4.80
2022-10-17T18:24:00.471Z,4.72
2022-10-17T18:26:27.820Z,4.63
2022-10-17T18:28:54.555Z,5.00
2022-10-17T18:31:35.627Z,6.25
2022-10-17T18:34:05.235Z,4.45
2022-10-17T18:36:33.375Z,4.82
2022-10-17T18:39:01.179Z,4.78
2022-10-17T18:41:28.446Z,4.25
2022-10-17T18:43:56.495Z,5.07
2022-10-17T18:46:29.041Z,4.70
2022-10-17T18:48:57.277Z,4.90
2022-10-17T18:51:25.894Z,5.45
2022-10-17T18:53:54.788Z,4.93
2022-10-17T18:56:22.572Z,5.47
2022-10-17T18:58:49.167Z,4.95
2022-10-17T19:01:22.048Z,5.10
2022-10-17T19:03:53.261Z,5.50
2022-10-17T19:06:23.132Z,5.07
2022-10-17T19:08:49.978Z,5.00
2022-10-17T19:11:23.895Z,6.13
2022-10-17T19:13:50.866Z,5.07
2022-10-17T19:16:19.038Z,4.85
2022-10-17T19:19:07.129Z,5.00
2022-10-17T19:21:34.746Z,5.22
2022-10-17T19:24:03.986Z,5.57
2022-10-17T19:26:32.729Z,5.47
2022-10-17T19:29:00.601Z,4.93
2022-10-17T19:31:29.518Z,5.40
2022-10-17T19:33:56.788Z,5.28
2022-10-17T19:36:28.935Z,5.03
2022-10-17T19:38:59.096Z,5.43
2022-10-17T19:41:26.523Z,5.68
2022-10-17T19:43:53.093Z,5.43
2022-10-17T19:46:22.269Z,5.07
2022-10-17T19:48:50.297Z,5.68
2022-10-17T19:51:19.677Z,6.03
2022-10-17T19:53:47.416Z,5.88
2022-10-17T19:56:18.551Z,5.50
2022-10-17T19:58:46.651Z,4.90
2022-10-17T20:01:18.953Z,5.95
2022-10-17T20:03:45.902Z,5.40
2022-10-17T20:06:12.904Z,6.00
2022-10-17T20:08:40.701Z,5.90
2022-10-17T20:11:12.065Z,5.95
2022-10-17T20:13:39.164Z,5.50
2022-10-17T20:16:07.561Z,5.97
2022-10-17T20:18:35.006Z,5.40
2022-10-17T20:21:07.134Z,5.82
2022-10-17T20:23:33.998Z,5.68
2022-10-17T20:26:08.034Z,5.65
2022-10-17T20:31:13.797Z,4.72
2022-10-17T20:33:41.500Z,5.32
2022-10-17T20:36:09.848Z,5.57
2022-10-17T20:38:36.843Z,5.22
2022-10-17T20:41:08.640Z,5.90
2022-10-17T20:43:36.481Z,5.78
2022-10-17T20:46:15.575Z,5.88
2022-10-17T20:48:53.581Z,5.22
2022-10-17T20:51:21.009Z,5.65
2022-10-17T20:53:48.093Z,5.53
2022-10-17T20:56:21.328Z,6.03
2022-10-17T20:58:55.934Z,5.40
2022-10-17T21:03:50.044Z,5.03
2022-10-17T21:06:17.762Z,5.78
2022-10-17T21:08:45.593Z,5.15
2022-10-17T21:11:18.328Z,4.53
2022-10-17T21:13:46.249Z,5.00
2022-10-17T21:16:18.832Z,5.20
2022-10-17T21:18:46.026Z,5.07
2022-10-17T21:21:18.650Z,5.35
2022-10-17T21:23:47.449Z,5.10
2022-10-17T21:26:14.795Z,5.03
2022-10-17T21:28:42.063Z,5.43
2022-10-17T21:31:23.183Z,4.97
2022-10-17T21:33:52.666Z,5.00
2022-10-17T21:36:20.510Z,4.85
2022-10-17T21:38:48.721Z,5.43
2022-10-17T21:41:19.672Z,5.25
2022-10-17T21:43:46.808Z,5.30
2022-10-17T21:46:16.015Z,5.28
2022-10-17T21:48:43.641Z,5.03
2022-10-17T21:51:12.522Z,5.60
2022-10-17T21:53:39.796Z,4.95
2022-10-17T21:56:14.218Z,5.78
2022-10-17T21:58:41.620Z,4.38
2022-10-17T22:01:10.800Z,5.03
2022-10-17T22:03:42.718Z,5.35
2022-10-17T22:06:38.542Z,4.72
2022-10-17T22:09:08.644Z,5.82
2022-10-17T22:11:35.835Z,5.20
2022-10-17T22:14:05.943Z,4.97
2022-10-17T22:16:33.599Z,5.40
2022-10-17T22:19:05.861Z,4.75
2022-10-17T22:21:34.769Z,4.53
2022-10-17T22:24:04.390Z,5.65
2022-10-17T22:26:32.752Z,5.10
2022-10-17T22:28:59.531Z,4.93
2022-10-17T22:31:26.443Z,5.68
2022-10-17T22:33:53.049Z,5.03
2022-10-17T22:36:19.619Z,5.47
2022-10-17T22:38:46.299Z,5.18
2022-10-17T22:41:12.837Z,5.32
2022-10-17T22:43:39.417Z,5.03
2022-10-17T22:46:07.094Z,5.10
2022-10-17T22:48:34.033Z,5.22
2022-10-17T22:51:01.290Z,5.00
2022-10-17T22:53:29.713Z,5.10
2022-10-17T22:56:02.058Z,5.28
2022-10-17T22:58:30.703Z,5.90
2022-10-17T23:00:58.136Z,6.40
2022-10-17T23:03:26.695Z,4.72
2022-10-17T23:05:53.717Z,4.90
2022-10-17T23:08:20.335Z,5.00
2022-10-17T23:10:47.468Z,5.10
2022-10-17T23:13:14.964Z,4.63
2022-10-17T23:15:41.820Z,5.25
2022-10-17T23:18:09.789Z,5.10
2022-10-17T23:20:37.101Z,5.25
2022-10-17T23:23:04.296Z,5.10
2022-10-17T23:25:30.933Z,4.85
2022-10-17T23:27:57.480Z,6.03
2022-10-17T23:30:24.101Z,4.70
2022-10-17T23:32:50.708Z,5.65
2022-10-17T23:35:17.280Z,4.25
2022-10-17T23:37:43.842Z,4.78
2022-10-17T23:40:10.970Z,5.00
2022-10-17T23:42:37.505Z,5.25
2022-10-17T23:45:04.308Z,5.57
2022-10-17T23:47:31.444Z,5.40
2022-10-17T23:49:58.633Z,4.95
2022-10-17T23:52:25.630Z,4.45
2022-10-17T23:54:52.188Z,5.07
2022-10-17T23:57:18.749Z,4.55
2022-10-17T23:59:45.412Z,5.22
